OINN  Noshahr  Airport

Iran

Add Bookmark
ICAO OINN
IATA NSH
Type Airport
Status Operational
Latitude
36° 39' 47" N
36.663300
Longitude
51° 27' 52" E
51.464699
Local (GMT +4.5 ) UTC
Apr 29, 2016 08:27 pm Apr 29, 2016 15:57
Sunrise-Sunset Local UTC
Begin Civil Twilight 05:42 am 01:12
Sunrise 06:10 am 01:40
Sunset 07:52 pm 15:22
End Civil Twilight 08:20 pm 15:50
VFR
VFR
MVFR
MVFR
IFR
IFR
LIFR
LIFR
Unknown
Unavailable

Current Weather

METAR Observed VFR
OINN 291500Z 30006KT 9999 FEW025CB SCT027 BKN090 18/14 Q1015 Fri, Apr 29, 2016 @ 15:00 UTC
(57 Minutes ago)
Visual Flight Rules
Wind Visibility Clouds Conditions
300° at 6 knots (11 kph) 10 km or more
  • Few at 2,500 ft AGL
  • Scattered at 2,700 ft AGL
  • Broken at 9,000 ft AGL
  • No significant weather
Temperatures Readings Precipitation
Current Temp
18°C
64°F
Dewpoint
14°C
57°F
Humidity 78%
Altimeter 29.97" Hg
Sea Level Pressure 1,015 mb
None Recorded

Additional weather within a 92.6km radius of OINN

Map ICAO Location
OINR 75km W/NW (292°)
VFR
VFR
MVFR
MVFR
IFR
IFR
LIFR
LIFR
Unknown
Unavailable
-
-

CheckWX.com is intended as a tool to help pilots better visualize weather data. It is not intended as a substitute for an official weather briefing obtained from a Flight Service Station. CheckWX.com does not meet the FAA requirements for an official pre-flight weather briefing. Therefore, it's important that pilots still call and obtain an official FSS pre-flight weather briefing.

© 2007-2016 CheckWX.com
15:57:16 UTC